Thessaloniki, Greece

12:39 PM EET on December 18, 2014 (GMT +0200)
Makedonia | Change Station
CLOSE
Current Station
Airport
Location: Thessaloniki,
Elevation: 13 ft
Nearby Weather Stations

Elev 13 ft 40.52 °N, 22.97 °E | Updated 19 minutes ago

Overcast
Overcast
46 °F
Feels Like 46 °F
N
1
Wind Variable Wind from Variable

Today
High -- | Low -- °F
--% Chance of Precip.
Yesterday
High -- | Low -- °F
Precip. -- in
7:46 AM 5:03 PM
Waning Crescent, 15% visible
Pressure 30.04 in
Visibility 0.9 miles
Clouds Scattered Clouds 300 ft
Overcast 1500 ft
Dew Point 46 °F
Humidity 100%
Rainfall 0.00 in
Snow Depth Not available.
UV 1 out of 12
Pollen Not available.
Air Quality Not available.
Flu Activity Not available.
METAR LGTS 181020Z VRB01KT 1500 R16/1900 R34/2000 BR SCT003 OVC015 08/08 Q1017 BECMG 1800 BR

More Conditions Fewer Conditions

Pressure 30.04 in
Visibility 0.9 miles
Clouds Scattered Clouds 300 ft
Overcast 1500 ft
Dew Point 46 °F
Humidity 100%
Rainfall 0.00 in
Snow Depth Not available.
UV 1 out of 12
Pollen Not available.
Air Quality Not available.
Flu Activity Not available.
METAR LGTS 181020Z VRB01KT 1500 R16/1900 R34/2000 BR SCT003 OVC015 08/08 Q1017 BECMG 1800 BR

More Conditions Fewer Conditions

10-Day Weather Forecast

Almanac

Astronomy

Dec. 18, 2014 Rise Set
Actual Time
Civil Twilight
Nautical Twilight
Astronomical Twilight
Moon
Length of Visible Light
Length of Day
Tomorrow will be .
, % of the Moon is Illuminated

Today's Extremes

Country Highs Country Lows

Community

WunderPhotos

Upload Photos

1,778,907 photos uploaded!

WunderBlogs® & News

Nearby

Air Quality

  Air Quality AQ Index Pollutant
Not available.

Snow Depth

Station Depth Elevation

Earthquake Activity

City Distance Mag. Time & Date
Minimum magnitude displayed is 2.5.

Coastal Water Temperatures

Place Temperature

Nearby Weather Stations